Time;durP1;ratioP1;P1;durP2;ratioP2;P2;SDS_P1;SDS_P2;PMS_P1;PMS_P2;Temp;Humidity;BMP_temperature;BMP_pressure;BME280_temperature;BME280_humidity;BME280_pressure;Samples;Min_cycle;Max_cycle;Signal;HPM_P1;HPM_P2
2021/11/12 00:02:21;;;;;;;3.30;3.00;;;16.20;99.90;;;;;;5122598;27;20453;-67
2021/11/12 00:11:49;;;;;;;2.10;1.90;;;16.20;99.90;;;;;;5111550;28;20487;-67
2021/11/12 00:13:24;;;;;;;2.80;2.37;;;16.20;99.90;;;;;;5120204;27;20467;-68
2021/11/12 00:16:00;;;;;;;4.37;2.20;;;16.20;99.90;;;;;;5131690;27;20441;-67
2021/11/12 00:18:45;;;;;;;2.27;2.17;;;16.20;99.90;;;;;;5112102;27;20459;-69
2021/11/12 00:21:37;;;;;;;2.50;2.30;;;16.20;99.90;;;;;;5116202;27;20457;-67
2021/11/12 00:24:27;;;;;;;2.53;2.40;;;16.20;99.90;;;;;;5121297;27;20983;-67
2021/11/12 00:26:58;;;;;;;3.10;2.40;;;16.20;99.90;;;;;;5111220;27;20472;-67
2021/11/12 00:29:41;;;;;;;2.90;2.70;;;16.20;99.90;;;;;;5122094;27;20512;-68
2021/11/12 00:32:28;;;;;;;2.30;2.10;;;16.20;99.90;;;;;;5118632;27;20472;-68
2021/11/12 00:35:17;;;;;;;2.83;2.63;;;16.20;99.90;;;;;;5112854;27;20466;-67
2021/11/12 00:37:55;;;;;;;4.30;2.60;;;16.20;99.90;;;;;;5128934;27;20849;-67
2021/11/12 00:40:30;;;;;;;4.40;2.83;;;16.20;99.90;;;;;;5112791;27;20467;-68
2021/11/12 00:43:11;;;;;;;2.07;1.97;;;16.20;99.90;;;;;;5127682;27;20476;-68
2021/11/12 00:45:55;;;;;;;2.60;2.50;;;16.20;99.90;;;;;;5115735;27;20440;-68
2021/11/12 00:48:41;;;;;;;2.70;2.50;;;16.20;99.90;;;;;;5118813;27;20514;-68
2021/11/12 00:51:24;;;;;;;2.80;2.60;;;16.20;99.90;;;;;;5117931;27;20496;-68
2021/11/12 00:54:14;;;;;;;2.43;2.27;;;16.20;99.90;;;;;;5112644;27;20588;-68
2021/11/12 00:56:46;;;;;;;2.43;2.23;;;16.20;99.90;;;;;;5116711;27;20604;-68
2021/11/12 00:59:22;;;;;;;2.37;2.10;;;16.20;99.90;;;;;;5126296;27;20483;-69
2021/11/12 01:01:58;;;;;;;2.20;2.10;;;16.10;99.90;;;;;;5115040;27;20485;-68
2021/11/12 01:04:31;;;;;;;2.27;2.07;;;16.20;99.90;;;;;;5130202;27;21009;-68
2021/11/12 01:07:07;;;;;;;2.87;2.67;;;16.20;99.90;;;;;;5115958;27;20536;-68
2021/11/12 01:09:50;;;;;;;2.80;2.27;;;16.20;99.90;;;;;;5110627;28;20472;-68
2021/11/12 01:12:27;;;;;;;3.87;2.70;;;16.20;99.90;;;;;;5115939;27;20456;-68
2021/11/12 01:15:00;;;;;;;2.43;2.23;;;16.20;99.90;;;;;;5122650;27;20479;-68
2021/11/12 01:17:38;;;;;;;2.80;2.60;;;16.20;99.90;;;;;;5115834;27;20986;-68
2021/11/12 01:20:20;;;;;;;2.73;2.53;;;16.20;99.90;;;;;;5119136;27;20439;-68
2021/11/12 01:23:00;;;;;;;3.37;3.07;;;16.20;99.90;;;;;;5114564;28;20451;-68
2021/11/12 01:25:33;;;;;;;2.67;2.47;;;16.20;99.90;;;;;;5116468;27;20465;-68
2021/11/12 01:28:04;;;;;;;3.10;2.50;;;16.20;99.90;;;;;;5117005;27;20651;-68
2021/11/12 01:30:36;;;;;;;2.77;2.57;;;16.20;99.90;;;;;;5111176;28;20461;-68
2021/11/12 01:33:07;;;;;;;2.70;2.50;;;16.20;99.90;;;;;;5135478;27;20997;-68
2021/11/12 01:35:42;;;;;;;3.10;2.50;;;16.20;99.90;;;;;;5126272;27;20448;-68
2021/11/12 01:38:14;;;;;;;3.00;2.70;;;16.30;99.90;;;;;;5131266;27;20470;-68
2021/11/12 01:40:47;;;;;;;2.20;2.00;;;16.20;99.90;;;;;;5121188;27;20461;-68
2021/11/12 01:43:20;;;;;;;3.40;3.10;;;16.30;99.90;;;;;;5122949;27;20470;-68
2021/11/12 01:46:05;;;;;;;2.50;2.40;;;16.20;99.90;;;;;;5120862;27;20456;-67
2021/11/12 01:48:55;;;;;;;2.47;2.37;;;16.20;99.90;;;;;;5121916;27;20938;-68
2021/11/12 01:51:36;;;;;;;2.97;2.53;;;16.30;99.90;;;;;;5125759;27;20467;-68
2021/11/12 01:54:25;;;;;;;3.20;2.87;;;16.30;99.90;;;;;;5122454;27;20490;-68
2021/11/12 01:59:42;;;;;;;4.53;3.87;;;16.30;99.90;;;;;;5112029;28;20477;-68
2021/11/12 02:02:16;;;;;;;3.73;3.43;;;16.20;99.90;;;;;;5112144;27;20453;-68
2021/11/12 02:04:48;;;;;;;3.80;3.40;;;16.20;99.90;;;;;;5114093;28;20512;-68
2021/11/12 02:07:20;;;;;;;3.20;3.00;;;16.20;99.90;;;;;;5122862;27;20448;-68
2021/11/12 02:09:51;;;;;;;3.40;2.93;;;16.30;99.90;;;;;;5134274;27;20884;-68
2021/11/12 02:12:28;;;;;;;3.40;3.10;;;16.20;99.90;;;;;;5122639;27;20437;-68
2021/11/12 02:15:01;;;;;;;3.43;3.00;;;16.30;99.90;;;;;;5126220;27;20448;-68
2021/11/12 02:17:36;;;;;;;3.70;2.90;;;16.30;99.90;;;;;;5116727;27;20441;-68
2021/11/12 02:20:17;;;;;;;3.67;3.37;;;16.30;99.90;;;;;;5118525;27;20445;-68
2021/11/12 02:22:54;;;;;;;3.00;2.70;;;16.30;99.90;;;;;;5123981;27;20452;-68
2021/11/12 02:25:28;;;;;;;4.07;3.67;;;16.20;99.90;;;;;;5115217;27;20495;-68
2021/11/12 02:28:01;;;;;;;3.80;3.17;;;16.20;99.90;;;;;;5121423;27;20453;-68
2021/11/12 02:30:33;;;;;;;4.20;3.37;;;16.20;99.90;;;;;;5123889;27;20471;-68
2021/11/12 02:33:07;;;;;;;4.30;3.90;;;16.30;99.90;;;;;;5132930;27;20475;-68
2021/11/12 02:35:40;;;;;;;7.03;3.23;;;16.20;99.90;;;;;;5127385;27;20810;-68
2021/11/12 02:38:13;;;;;;;3.77;3.17;;;16.20;99.90;;;;;;5112802;27;20446;-69
2021/11/12 02:40:45;;;;;;;4.50;4.10;;;16.30;99.90;;;;;;5111475;27;20449;-68
2021/11/12 02:43:16;;;;;;;3.83;3.53;;;16.20;99.90;;;;;;5129833;27;20448;-68
2021/11/12 02:45:58;;;;;;;3.50;3.20;;;16.30;99.90;;;;;;5117546;27;20480;-68
2021/11/12 02:48:33;;;;;;;3.67;3.40;;;16.30;99.90;;;;;;5120641;27;20465;-68
2021/11/12 02:51:04;;;;;;;2.47;2.37;;;16.30;99.90;;;;;;5115114;27;20585;-68
2021/11/12 02:53:38;;;;;;;2.90;2.60;;;16.30;99.90;;;;;;5123878;27;20452;-70
2021/11/12 02:56:12;;;;;;;3.83;2.90;;;16.30;99.90;;;;;;5124186;27;20444;-68
2021/11/12 02:58:43;;;;;;;3.20;2.90;;;16.30;99.90;;;;;;5118994;27;20446;-68
2021/11/12 03:01:14;;;;;;;2.97;2.77;;;16.40;99.90;;;;;;5121031;27;20459;-68
2021/11/12 03:03:45;;;;;;;4.63;3.30;;;16.30;99.90;;;;;;5132607;27;20524;-68
2021/11/12 03:06:16;;;;;;;3.23;3.00;;;16.40;99.90;;;;;;5122772;27;20481;-69
2021/11/12 03:08:49;;;;;;;2.40;2.23;;;16.30;99.90;;;;;;5127348;27;20452;-68
2021/11/12 03:11:20;;;;;;;2.70;2.50;;;16.30;99.90;;;;;;5112923;27;20507;-69
2021/11/12 03:13:51;;;;;;;5.10;3.30;;;16.30;99.90;;;;;;5126467;27;20460;-68
2021/11/12 03:16:22;;;;;;;3.83;3.13;;;16.40;99.90;;;;;;5112915;27;20869;-68
2021/11/12 03:18:54;;;;;;;2.73;2.53;;;16.30;99.90;;;;;;5119249;27;20457;-68
2021/11/12 03:21:26;;;;;;;2.70;2.47;;;16.30;99.90;;;;;;5113423;28;20946;-69
2021/11/12 03:24:01;;;;;;;4.13;2.80;;;16.30;99.90;;;;;;5112062;28;20460;-68
2021/11/12 03:26:38;;;;;;;3.70;3.03;;;16.30;99.90;;;;;;5113955;27;20468;-68
2021/11/12 03:29:40;;;;;;;4.53;3.40;;;16.30;99.90;;;;;;5117903;27;20795;-68
2021/11/12 03:49:54;;;;;;;4.33;4.00;;;16.20;99.90;;;;;;5109076;28;20449;-68
2021/11/12 04:00:52;;;;;;;4.60;4.10;;;16.20;99.90;;;;;;5124771;27;20460;-68
2021/11/12 04:03:31;;;;;;;6.17;5.57;;;16.20;99.90;;;;;;5119242;27;20844;-68
2021/11/12 04:06:30;;;;;;;6.13;5.63;;;16.20;99.90;;;;;;5118096;27;20477;-68
2021/11/12 04:17:35;;;;;;;3.50;3.20;;;16.10;99.90;;;;;;5111835;27;20441;-67
2021/11/12 04:20:18;;;;;;;2.67;2.47;;;16.10;99.90;;;;;;5113040;27;20448;-68
2021/11/12 05:10:45;;;;;;;3.37;2.70;;;16.30;99.90;;;;;;5126644;27;20464;-68
2021/11/12 05:13:29;;;;;;;2.53;2.40;;;16.20;99.90;;;;;;5117513;28;20448;-69
2021/11/12 05:44:04;;;;;;;3.57;2.97;;;16.20;99.90;;;;;;5118518;28;20454;-67
2021/11/12 05:46:46;;;;;;;3.50;2.60;;;16.20;99.90;;;;;;5108412;28;20513;-67
2021/11/12 05:55:03;;;;;;;4.00;2.57;;;16.20;99.90;;;;;;5118556;28;20451;-67
2021/11/12 05:55:09;;;;;;;2.53;2.33;;;16.20;99.90;;;;;;5123351;28;20472;-67
2021/11/12 05:57:41;;;;;;;3.23;2.53;;;16.20;99.90;;;;;;5110204;28;20792;-67
2021/11/12 06:00:14;;;;;;;3.20;3.00;;;16.20;99.90;;;;;;5121888;27;20473;-68
2021/11/12 06:02:45;;;;;;;2.63;2.40;;;16.20;99.90;;;;;;5131455;27;20540;-68
2021/11/12 06:05:17;;;;;;;2.63;2.20;;;16.20;99.90;;;;;;5123983;27;20448;-68
2021/11/12 06:07:49;;;;;;;3.47;2.10;;;16.20;99.90;;;;;;5124971;27;20427;-68
2021/11/12 06:10:21;;;;;;;4.73;2.17;;;16.20;99.90;;;;;;5134296;27;20453;-68
2021/11/12 06:12:52;;;;;;;2.40;2.30;;;16.10;99.90;;;;;;5129505;27;20471;-68
2021/11/12 06:15:23;;;;;;;2.90;2.27;;;16.10;99.90;;;;;;5126449;27;20452;-68
2021/11/12 06:17:54;;;;;;;2.60;2.40;;;16.10;99.90;;;;;;5121192;27;20454;-68
2021/11/12 06:20:25;;;;;;;3.20;2.10;;;16.20;99.90;;;;;;5123893;27;21088;-68
2021/11/12 06:22:56;;;;;;;2.30;2.10;;;16.10;99.90;;;;;;5118215;27;20454;-68
2021/11/12 06:25:28;;;;;;;2.70;2.37;;;16.10;99.90;;;;;;5115203;27;20463;-68
2021/11/12 06:27:59;;;;;;;2.77;2.17;;;16.10;99.90;;;;;;5111491;28;20457;-69
2021/11/12 06:30:30;;;;;;;2.03;1.73;;;16.10;99.90;;;;;;5114916;27;20449;-69
2021/11/12 06:33:01;;;;;;;1.60;1.50;;;16.10;99.90;;;;;;5125030;27;20456;-68
2021/11/12 06:35:31;;;;;;;1.97;1.80;;;16.10;99.90;;;;;;5120043;27;20553;-68
2021/11/12 06:38:02;;;;;;;1.90;1.60;;;16.10;99.90;;;;;;5113139;27;20961;-68
2021/11/12 06:40:35;;;;;;;3.10;2.90;;;16.10;99.90;;;;;;5111539;28;20954;-68
2021/11/12 06:43:09;;;;;;;3.10;1.73;;;16.10;99.90;;;;;;5121200;27;20452;-68
2021/11/12 06:51:18;;;;;;;2.43;1.80;;;16.00;99.90;;;;;;5119970;27;20448;-68
2021/11/12 06:53:51;;;;;;;2.30;2.20;;;16.00;99.90;;;;;;5132871;27;20445;-68
2021/11/12 06:56:24;;;;;;;3.13;2.10;;;16.00;99.90;;;;;;5120754;27;20452;-68
2021/11/12 06:58:54;;;;;;;2.20;1.60;;;16.00;99.90;;;;;;5129703;27;20460;-68
2021/11/12 07:01:26;;;;;;;2.87;2.67;;;16.00;99.90;;;;;;5111247;28;20460;-67
2021/11/12 07:03:58;;;;;;;2.37;2.17;;;16.00;99.90;;;;;;5124003;27;20467;-68
2021/11/12 07:06:29;;;;;;;2.43;1.50;;;16.00;99.90;;;;;;5119655;27;21009;-68
2021/11/12 07:09:00;;;;;;;3.13;2.20;;;16.10;99.90;;;;;;5120796;27;20457;-68
2021/11/12 07:11:32;;;;;;;2.40;2.20;;;16.10;99.90;;;;;;5114622;27;20441;-68
2021/11/12 07:14:05;;;;;;;2.43;1.67;;;16.00;99.90;;;;;;5124418;27;20459;-68
2021/11/12 07:16:36;;;;;;;1.97;1.83;;;16.00;99.90;;;;;;5119316;27;20455;-67
2021/11/12 07:19:07;;;;;;;2.83;2.00;;;16.10;99.90;;;;;;5124564;27;20555;-68
2021/11/12 07:21:39;;;;;;;1.57;1.47;;;16.10;99.90;;;;;;5122587;27;20444;-68
2021/11/12 07:24:10;;;;;;;2.20;1.97;;;16.10;99.90;;;;;;5132681;27;20453;-68
2021/11/12 07:26:43;;;;;;;1.90;1.80;;;16.10;99.90;;;;;;5123867;27;20459;-68
2021/11/12 07:29:14;;;;;;;1.80;1.70;;;16.10;99.90;;;;;;5124407;27;20448;-68
2021/11/12 07:31:45;;;;;;;2.03;1.63;;;16.10;99.90;;;;;;5131186;27;20890;-69
2021/11/12 07:34:16;;;;;;;1.20;1.20;;;16.10;99.90;;;;;;5120258;27;20449;-67
2021/11/12 07:36:49;;;;;;;1.90;1.47;;;16.10;99.90;;;;;;5111035;28;20851;-67
2021/11/12 07:42:37;;;;;;;1.50;1.40;;;16.10;99.90;;;;;;5119418;27;20472;-67
2021/11/12 07:45:19;;;;;;;4.53;1.40;;;16.10;99.90;;;;;;5119132;27;20493;-67
2021/11/12 07:47:50;;;;;;;1.10;1.10;;;16.10;99.90;;;;;;5112974;27;20904;-67
2021/11/12 07:50:21;;;;;;;1.37;1.27;;;16.10;99.90;;;;;;5121623;27;20460;-67
2021/11/12 07:52:52;;;;;;;1.17;1.17;;;16.10;99.90;;;;;;5116845;27;20473;-67
2021/11/12 07:55:22;;;;;;;1.40;1.30;;;16.10;99.90;;;;;;5114087;27;20487;-67
2021/11/12 07:57:55;;;;;;;1.10;1.10;;;16.10;99.90;;;;;;5118337;27;20475;-67
2021/11/12 08:00:26;;;;;;;1.20;1.10;;;16.10;99.90;;;;;;5124314;27;20438;-67
2021/11/12 08:02:57;;;;;;;1.60;0.90;;;16.10;99.90;;;;;;5131514;27;20449;-67
2021/11/12 08:05:30;;;;;;;1.80;1.23;;;16.10;99.90;;;;;;5127049;27;20450;-67
2021/11/12 08:08:05;;;;;;;1.60;1.50;;;16.20;99.90;;;;;;5120564;27;20476;-67
2021/11/12 08:10:44;;;;;;;1.37;1.27;;;16.20;99.90;;;;;;5123259;27;20845;-67
2021/11/12 08:13:23;;;;;;;1.67;1.57;;;16.20;99.90;;;;;;5131876;27;20898;-67
2021/11/12 08:16:04;;;;;;;1.30;1.20;;;16.20;99.90;;;;;;5114902;27;20472;-69
2021/11/12 08:18:53;;;;;;;1.80;1.70;;;16.20;99.90;;;;;;5111680;28;20445;-69
2021/11/12 08:21:29;;;;;;;2.40;1.77;;;16.20;99.90;;;;;;5110559;27;20461;-69
2021/11/12 08:24:06;;;;;;;1.60;1.50;;;16.10;99.90;;;;;;5121750;27;20447;-67
2021/11/12 08:26:45;;;;;;;1.47;1.37;;;16.20;99.90;;;;;;5118332;27;20552;-67
2021/11/12 08:29:31;;;;;;;1.63;1.53;;;16.10;99.90;;;;;;5126438;27;20463;-67
2021/11/12 08:35:11;;;;;;;1.60;1.50;;;16.10;99.90;;;;;;5118757;27;20968;-67
2021/11/12 08:37:52;;;;;;;1.30;1.20;;;16.10;99.90;;;;;;5110808;28;20446;-68
2021/11/12 08:40:36;;;;;;;1.10;1.10;;;16.10;99.90;;;;;;5117858;27;20931;-67
2021/11/12 08:43:11;;;;;;;1.20;1.10;;;16.10;99.90;;;;;;5110731;28;20493;-67
2021/11/12 08:45:45;;;;;;;1.67;1.20;;;16.10;99.90;;;;;;5117778;27;20457;-67
2021/11/12 08:48:20;;;;;;;1.07;1.03;;;16.10;99.90;;;;;;5112058;28;20484;-67
2021/11/12 08:50:50;;;;;;;1.47;1.00;;;16.10;99.90;;;;;;5118804;27;20479;-67
2021/11/12 08:53:21;;;;;;;1.60;1.50;;;16.10;99.90;;;;;;5119393;27;20448;-67
2021/11/12 08:55:52;;;;;;;2.90;1.37;;;16.00;99.90;;;;;;5122898;27;20473;-68
2021/11/12 08:58:23;;;;;;;1.77;1.50;;;16.10;99.90;;;;;;5115948;27;20503;-67
2021/11/12 09:00:56;;;;;;;1.60;1.50;;;16.10;99.90;;;;;;5117983;27;20812;-67
2021/11/12 09:03:27;;;;;;;1.67;1.57;;;16.10;99.90;;;;;;5110041;28;20449;-68
2021/11/12 09:05:58;;;;;;;1.43;1.33;;;16.10;99.90;;;;;;5109167;28;20453;-68
2021/11/12 09:08:28;;;;;;;1.50;1.40;;;16.10;99.90;;;;;;5110577;28;20857;-68
2021/11/12 09:10:59;;;;;;;1.37;1.17;;;16.10;99.90;;;;;;5120544;27;20487;-68
2021/11/12 09:13:33;;;;;;;1.40;1.30;;;16.10;99.90;;;;;;5131080;27;20449;-68
2021/11/12 09:16:08;;;;;;;1.47;1.03;;;16.10;99.90;;;;;;5120976;27;20515;-68
2021/11/12 09:18:40;;;;;;;1.00;1.00;;;16.10;99.90;;;;;;5114097;27;20498;-68
2021/11/12 09:21:11;;;;;;;1.23;1.13;;;16.10;99.90;;;;;;5123082;28;20455;-67
2021/11/12 09:23:43;;;;;;;1.63;1.40;;;16.20;99.90;;;;;;5115638;28;20445;-68
2021/11/12 09:26:14;;;;;;;1.67;1.13;;;16.20;99.90;;;;;;5126052;27;20482;-68
2021/11/12 09:28:45;;;;;;;1.67;1.40;;;16.20;99.90;;;;;;5121351;27;20481;-67
2021/11/12 09:31:17;;;;;;;1.17;1.10;;;16.20;99.90;;;;;;5109285;28;20464;-68
2021/11/12 09:33:49;;;;;;;1.30;1.20;;;16.20;99.90;;;;;;5123836;27;21010;-68
2021/11/12 09:36:20;;;;;;;3.67;1.17;;;16.20;99.90;;;;;;5114698;27;20914;-68
2021/11/12 09:38:50;;;;;;;1.00;1.00;;;16.20;99.90;;;;;;5129133;27;20449;-68
2021/11/12 09:41:21;;;;;;;1.10;1.00;;;16.20;99.90;;;;;;5113182;27;20460;-67
2021/11/12 09:43:53;;;;;;;1.07;1.07;;;16.20;99.90;;;;;;5115182;27;20457;-68
2021/11/12 09:46:25;;;;;;;2.67;1.10;;;16.20;99.90;;;;;;5125372;27;20942;-68
2021/11/12 09:48:59;;;;;;;1.80;1.07;;;16.20;99.90;;;;;;5122382;27;20584;-68
2021/11/12 09:51:30;;;;;;;1.40;1.17;;;16.20;99.90;;;;;;5126127;27;20815;-69
2021/11/12 09:54:01;;;;;;;1.37;1.27;;;16.20;99.90;;;;;;5121875;27;20970;-68
2021/11/12 09:56:34;;;;;;;1.03;0.90;;;16.10;99.90;;;;;;5120109;27;20520;-68
2021/11/12 09:59:05;;;;;;;1.10;1.00;;;16.10;99.90;;;;;;5121893;27;20467;-68
2021/11/12 10:01:40;;;;;;;1.23;1.00;;;16.10;99.90;;;;;;5112373;28;20817;-68
2021/11/12 10:04:11;;;;;;;1.40;1.30;;;16.10;99.90;;;;;;5121586;27;20448;-68
2021/11/12 10:06:45;;;;;;;2.20;1.60;;;16.10;99.90;;;;;;5112198;28;20449;-68
2021/11/12 10:09:17;;;;;;;1.43;1.10;;;16.10;99.90;;;;;;5131927;27;20487;-68
2021/11/12 10:11:51;;;;;;;0.93;0.93;;;16.10;99.90;;;;;;5126947;27;20458;-68
2021/11/12 10:14:37;;;;;;;1.27;1.17;;;16.10;99.90;;;;;;5124759;27;20476;-68
2021/11/12 10:17:11;;;;;;;1.07;1.07;;;16.10;99.90;;;;;;5122452;27;20468;-68
2021/11/12 10:19:45;;;;;;;0.90;0.90;;;16.10;99.90;;;;;;5124774;27;20460;-68
2021/11/12 10:22:18;;;;;;;0.97;0.90;;;16.10;99.90;;;;;;5123296;27;20447;-68
2021/11/12 10:24:56;;;;;;;1.30;1.20;;;16.00;99.90;;;;;;5127332;27;20475;-68
2021/11/12 10:27:32;;;;;;;1.07;1.03;;;16.00;99.90;;;;;;5122137;27;20460;-68
2021/11/12 10:30:05;;;;;;;1.83;1.30;;;16.00;99.90;;;;;;5120899;27;20449;-68
2021/11/12 10:32:38;;;;;;;1.10;1.10;;;16.00;99.90;;;;;;5116670;27;20445;-68
2021/11/12 10:35:19;;;;;;;1.70;1.03;;;16.00;99.90;;;;;;5123516;27;20453;-69
2021/11/12 10:37:50;;;;;;;3.87;1.30;;;16.00;99.90;;;;;;5134389;27;20943;-68
2021/11/12 10:40:23;;;;;;;2.47;1.07;;;16.00;99.90;;;;;;5124794;27;20455;-69
2021/11/12 10:42:57;;;;;;;1.30;1.03;;;16.00;99.90;;;;;;5118649;27;20452;-70
2021/11/12 10:45:30;;;;;;;1.40;1.30;;;16.00;99.90;;;;;;5132804;27;20484;-68
2021/11/12 10:48:05;;;;;;;1.60;1.30;;;16.00;99.90;;;;;;5130903;27;20476;-68
2021/11/12 10:50:39;;;;;;;2.80;1.40;;;16.00;99.90;;;;;;5124018;27;20539;-68
2021/11/12 10:53:12;;;;;;;1.80;1.43;;;16.00;99.90;;;;;;5130291;27;20452;-68
2021/11/12 10:55:43;;;;;;;1.43;1.10;;;16.00;99.90;;;;;;5121506;27;20487;-68
2021/11/12 10:58:15;;;;;;;3.73;1.47;;;16.00;99.90;;;;;;5125621;27;20442;-68
2021/11/12 11:00:48;;;;;;;3.23;1.97;;;15.90;99.90;;;;;;5119878;27;20468;-68
2021/11/12 11:03:22;;;;;;;1.30;1.20;;;15.90;99.90;;;;;;5112170;28;20857;-68
2021/11/12 11:05:55;;;;;;;1.50;1.37;;;15.90;99.90;;;;;;5126553;27;20460;-68
2021/11/12 11:08:27;;;;;;;1.83;1.40;;;16.00;99.90;;;;;;5121044;27;20478;-68
2021/11/12 11:11:01;;;;;;;1.83;1.20;;;15.90;99.90;;;;;;5114179;27;20472;-68
2021/11/12 11:13:38;;;;;;;3.53;1.43;;;15.90;99.90;;;;;;5121002;27;20804;-69
2021/11/12 11:16:16;;;;;;;1.73;1.20;;;15.90;99.90;;;;;;5119323;27;20444;-68
2021/11/12 11:18:52;;;;;;;1.50;1.13;;;15.90;99.90;;;;;;5116098;27;20497;-68
2021/11/12 11:21:27;;;;;;;1.73;1.63;;;15.90;99.90;;;;;;5119293;27;20816;-68
2021/11/12 11:24:00;;;;;;;1.10;1.10;;;15.90;99.90;;;;;;5120695;27;20453;-68
2021/11/12 11:26:32;;;;;;;1.80;1.30;;;15.90;99.90;;;;;;5121977;27;20457;-67
2021/11/12 11:29:05;;;;;;;1.20;1.10;;;15.90;99.90;;;;;;5120906;27;20484;-67
2021/11/12 11:31:36;;;;;;;1.47;1.37;;;15.90;99.90;;;;;;5108855;27;20457;-67
2021/11/12 11:34:09;;;;;;;3.97;1.80;;;15.90;99.90;;;;;;5122398;27;20540;-67
2021/11/12 11:36:44;;;;;;;1.40;1.30;;;15.90;99.90;;;;;;5128945;27;20460;-67
2021/11/12 11:39:16;;;;;;;0.97;0.90;;;15.90;99.90;;;;;;5121940;27;20470;-67
2021/11/12 11:41:48;;;;;;;1.43;0.90;;;15.90;99.90;;;;;;5119543;27;20479;-67
2021/11/12 11:44:20;;;;;;;1.00;1.00;;;15.90;99.90;;;;;;5123982;27;20449;-67
2021/11/12 11:46:53;;;;;;;1.23;0.90;;;15.90;99.90;;;;;;5127766;27;20447;-67
2021/11/12 11:49:27;;;;;;;1.30;1.20;;;15.90;99.90;;;;;;5120341;27;20488;-67
2021/11/12 11:52:00;;;;;;;0.83;0.83;;;15.90;99.90;;;;;;5111893;28;20445;-67
2021/11/12 11:54:36;;;;;;;1.87;1.10;;;15.90;99.90;;;;;;5123444;27;20479;-67
2021/11/12 11:57:16;;;;;;;0.97;0.80;;;15.90;99.90;;;;;;5111011;27;20855;-67
2021/11/12 11:59:47;;;;;;;0.83;0.83;;;15.90;99.90;;;;;;5108536;27;20457;-67
2021/11/12 12:02:21;;;;;;;1.10;1.07;;;15.90;99.90;;;;;;5110081;28;20460;-69
2021/11/12 12:04:59;;;;;;;0.90;0.90;;;15.90;99.90;;;;;;5111816;28;20468;-67
2021/11/12 12:07:32;;;;;;;3.50;0.90;;;15.90;99.90;;;;;;5113023;27;20448;-67
2021/11/12 12:10:16;;;;;;;1.27;1.17;;;15.90;99.90;;;;;;5131854;27;20574;-67
2021/11/12 12:13:08;;;;;;;0.90;0.90;;;15.80;99.90;;;;;;5111486;28;20827;-67
2021/11/12 12:15:46;;;;;;;1.00;1.00;;;15.80;99.90;;;;;;5121261;27;20456;-67
2021/11/12 12:18:31;;;;;;;0.87;0.87;;;15.80;99.90;;;;;;5126937;27;20472;-67
2021/11/12 12:30:58;;;;;;;0.60;0.60;;;15.80;99.90;;;;;;5120651;27;20484;-67
2021/11/12 13:23:15;;;;;;;0.93;0.93;;;15.80;99.90;;;;;;5121513;27;20499;-67
2021/11/12 13:25:47;;;;;;;1.30;0.90;;;15.80;99.90;;;;;;5122439;28;20455;-67
2021/11/12 13:28:26;;;;;;;1.27;0.97;;;15.80;99.90;;;;;;5129114;27;20449;-67
2021/11/12 13:31:00;;;;;;;3.10;1.00;;;15.80;99.90;;;;;;5120398;27;20483;-67
2021/11/12 13:33:38;;;;;;;1.20;0.80;;;15.80;99.90;;;;;;5117810;27;20554;-67
2021/11/12 13:36:19;;;;;;;0.90;0.80;;;15.80;99.90;;;;;;5111766;28;20947;-67
2021/11/12 13:38:53;;;;;;;1.33;1.00;;;15.80;99.90;;;;;;5125137;27;20453;-67
2021/11/12 13:41:28;;;;;;;1.03;0.90;;;15.90;99.90;;;;;;5119913;28;20965;-67
2021/11/12 13:44:06;;;;;;;0.80;0.80;;;15.80;99.90;;;;;;5130427;27;20452;-67
2021/11/12 13:46:47;;;;;;;0.70;0.70;;;15.80;99.90;;;;;;5108536;28;20468;-67
2021/11/12 13:49:30;;;;;;;0.90;0.70;;;15.80;99.90;;;;;;5110953;28;20493;-67
2021/11/12 13:52:07;;;;;;;1.40;0.70;;;15.80;99.90;;;;;;5118674;28;20450;-67
2021/11/12 13:54:42;;;;;;;0.77;0.63;;;15.80;99.90;;;;;;5115602;28;20468;-68
2021/11/12 13:57:15;;;;;;;0.70;0.70;;;15.80;99.90;;;;;;5119761;28;20449;-67
2021/11/12 13:59:57;;;;;;;0.50;0.50;;;15.80;99.90;;;;;;5118919;27;20448;-69
2021/11/12 14:02:29;;;;;;;0.63;0.63;;;15.80;99.90;;;;;;5111300;27;20520;-67
2021/11/12 14:05:10;;;;;;;0.57;0.57;;;15.80;99.90;;;;;;5130312;27;20472;-67
2021/11/12 14:07:41;;;;;;;0.63;0.63;;;15.80;99.90;;;;;;5114861;28;21043;-67
2021/11/12 14:10:14;;;;;;;1.50;0.80;;;15.80;99.90;;;;;;5123430;27;20482;-70
2021/11/12 14:12:55;;;;;;;0.97;0.90;;;15.80;99.90;;;;;;5121983;27;20539;-69
2021/11/12 14:15:29;;;;;;;1.70;0.63;;;15.80;99.90;;;;;;5120447;27;20461;-68
2021/11/12 14:21:07;;;;;;;0.80;0.80;;;15.80;99.90;;;;;;5111579;27;20473;-68
2021/11/12 14:26:52;;;;;;;0.80;0.80;;;15.80;99.90;;;;;;5120183;27;20943;-68
2021/11/12 14:29:55;;;;;;;1.60;1.10;;;15.80;99.90;;;;;;5114846;27;20449;-68
2021/11/12 14:35:22;;;;;;;0.90;0.90;;;15.80;99.90;;;;;;5111011;27;20450;-69
2021/11/12 14:38:12;;;;;;;2.00;1.50;;;15.80;99.90;;;;;;5119885;27;20456;-68
2021/11/12 14:43:41;;;;;;;2.67;1.37;;;15.80;99.90;;;;;;5117093;27;20453;-68
2021/11/12 14:46:19;;;;;;;0.90;0.90;;;15.80;99.90;;;;;;5124219;27;20461;-68
2021/11/12 14:49:05;;;;;;;1.07;0.77;;;15.80;99.90;;;;;;5111205;27;20481;-68
2021/11/12 14:51:46;;;;;;;2.83;0.90;;;15.80;99.90;;;;;;5119764;27;20481;-68
2021/11/12 14:54:16;;;;;;;1.40;1.10;;;15.80;99.90;;;;;;5113089;28;20484;-68
2021/11/12 14:56:50;;;;;;;1.10;1.00;;;15.80;99.90;;;;;;5117915;27;20457;-68
2021/11/12 14:59:21;;;;;;;1.07;0.90;;;15.70;99.90;;;;;;5118948;27;20449;-68
2021/11/12 15:01:52;;;;;;;1.20;1.10;;;15.80;99.90;;;;;;5111275;27;20441;-68
2021/11/12 15:04:25;;;;;;;1.20;1.10;;;15.70;99.90;;;;;;5120949;27;20481;-68
2021/11/12 15:06:57;;;;;;;1.90;1.43;;;15.70;99.90;;;;;;5112141;27;20450;-68
2021/11/12 15:09:29;;;;;;;1.30;1.20;;;15.70;99.90;;;;;;5121588;27;20455;-68
2021/11/12 15:12:02;;;;;;;0.83;0.83;;;15.70;99.90;;;;;;5119410;27;20484;-68
2021/11/12 15:14:35;;;;;;;1.13;0.90;;;15.70;99.90;;;;;;5121151;27;20442;-68
2021/11/12 15:17:07;;;;;;;1.37;1.27;;;15.70;99.90;;;;;;5112020;27;20449;-68
2021/11/12 15:19:43;;;;;;;1.10;0.83;;;15.70;99.90;;;;;;5115350;27;20445;-68
2021/11/12 15:22:24;;;;;;;0.83;0.83;;;15.70;99.90;;;;;;5112144;28;20453;-68
2021/11/12 15:25:07;;;;;;;1.90;1.03;;;15.70;99.90;;;;;;5122973;27;20441;-68
2021/11/12 15:27:53;;;;;;;1.63;1.07;;;15.60;99.90;;;;;;5125132;27;20936;-68
2021/11/12 15:30:25;;;;;;;1.27;1.17;;;15.70;99.90;;;;;;5110435;28;20477;-68
2021/11/12 15:32:58;;;;;;;1.07;1.07;;;15.70;99.90;;;;;;5118526;27;20449;-68
2021/11/12 15:35:33;;;;;;;0.90;0.90;;;15.70;99.90;;;;;;5127966;27;20458;-68
2021/11/12 15:38:12;;;;;;;1.13;0.97;;;15.70;99.90;;;;;;5110484;27;20456;-68
2021/11/12 15:40:45;;;;;;;0.93;0.93;;;15.70;99.90;;;;;;5125638;27;20786;-68
2021/11/12 15:43:23;;;;;;;0.90;0.90;;;15.70;99.90;;;;;;5113350;27;20450;-68
2021/11/12 15:46:09;;;;;;;1.87;1.47;;;15.70;99.90;;;;;;5111975;27;20804;-68
2021/11/12 15:48:42;;;;;;;1.63;1.30;;;15.70;99.90;;;;;;5112433;27;20874;-68
2021/11/12 15:54:11;;;;;;;1.30;1.20;;;15.70;99.90;;;;;;5122411;27;20478;-68
2021/11/12 15:59:39;;;;;;;1.63;1.53;;;15.70;99.90;;;;;;5113789;27;20452;-68
2021/11/12 16:05:23;;;;;;;1.60;1.33;;;15.70;99.90;;;;;;5119119;27;20460;-68
2021/11/12 16:08:22;;;;;;;1.47;1.10;;;15.70;99.90;;;;;;5111149;28;20472;-69
2021/11/12 16:13:42;;;;;;;1.03;1.03;;;15.70;99.90;;;;;;5122511;27;20528;-68
2021/11/12 16:16:39;;;;;;;1.63;1.53;;;15.70;99.90;;;;;;5114743;27;20450;-68
2021/11/12 16:19:17;;;;;;;2.57;1.10;;;15.70;99.90;;;;;;5125153;27;20457;-68
2021/11/12 16:27:41;;;;;;;1.00;1.00;;;15.70;99.90;;;;;;5128693;27;20558;-68
2021/11/12 16:30:13;;;;;;;0.90;0.90;;;15.70;99.90;;;;;;5094716;28;20457;-69
2021/11/12 16:32:46;;;;;;;1.40;1.30;;;15.70;99.90;;;;;;5121976;27;20453;-68
2021/11/12 16:35:20;;;;;;;2.20;1.80;;;15.70;99.90;;;;;;5107672;28;20981;-68
2021/11/12 16:37:53;;;;;;;1.60;1.10;;;15.70;99.90;;;;;;5121660;27;20449;-68
2021/11/12 16:40:28;;;;;;;1.37;1.27;;;15.70;99.90;;;;;;5119944;28;20453;-68
2021/11/12 16:43:10;;;;;;;1.40;1.30;;;15.70;99.90;;;;;;5120436;27;20449;-68
2021/11/12 16:45:53;;;;;;;1.20;1.10;;;15.70;99.90;;;;;;5105812;28;20481;-68
2021/11/12 16:48:32;;;;;;;1.20;1.10;;;15.70;99.90;;;;;;5115726;27;20457;-68
2021/11/12 16:51:24;;;;;;;1.07;0.97;;;15.70;99.90;;;;;;5110007;27;20480;-68
2021/11/12 16:54:11;;;;;;;1.87;1.50;;;15.70;99.90;;;;;;5094261;28;20445;-68
2021/11/12 16:56:58;;;;;;;1.17;1.17;;;15.70;99.90;;;;;;5097346;28;20449;-68
2021/11/12 16:59:31;;;;;;;1.03;1.00;;;15.70;99.90;;;;;;5115016;28;20457;-68
2021/11/12 17:02:12;;;;;;;1.87;1.20;;;15.70;99.90;;;;;;5105799;28;20469;-68
2021/11/12 17:04:56;;;;;;;1.20;1.13;;;15.70;99.90;;;;;;5096917;28;20452;-68
2021/11/12 17:07:38;;;;;;;1.60;1.00;;;15.70;99.90;;;;;;5106230;27;20489;-68
2021/11/12 17:10:18;;;;;;;1.20;1.10;;;15.70;99.90;;;;;;5105556;28;20780;-68
2021/11/12 17:47:08;;;;;;;1.60;1.50;;;15.70;99.90;;;;;;5092746;28;20500;-68
2021/11/12 17:49:53;;;;;;;1.07;1.00;;;15.60;99.90;;;;;;5097264;28;20979;-67